createdAt,value
2023-02-09T00:01:36.804Z,50.17
2023-02-09T00:04:07.632Z,51.45
2023-02-09T00:06:38.291Z,51.98
2023-02-09T00:09:09.034Z,59.33
2023-02-09T00:11:57.386Z,57.83
2023-02-09T00:14:28.908Z,59.08
2023-02-09T00:16:59.829Z,56.35
2023-02-09T00:19:33.196Z,52.73
2023-02-09T00:22:03.406Z,54.67
2023-02-09T00:24:34.252Z,55.17
2023-02-09T00:27:04.871Z,54.23
2023-02-09T00:29:35.995Z,52.93
2023-02-09T00:32:07.198Z,53.80
2023-02-09T00:34:39.849Z,54.08
2023-02-09T00:37:10.637Z,50.65
2023-02-09T00:39:41.286Z,54.03
2023-02-09T00:42:13.138Z,61.92
2023-02-09T00:44:43.906Z,52.53
2023-02-09T00:47:14.599Z,56.63
2023-02-09T00:49:45.380Z,52.55
2023-02-09T00:52:20.108Z,59.45
2023-02-09T00:54:50.931Z,57.65
2023-02-09T00:57:21.570Z,56.88
2023-02-09T00:59:52.614Z,65.05
2023-02-09T01:02:23.398Z,58.00
2023-02-09T01:04:54.860Z,59.88
2023-02-09T01:07:26.683Z,67.10
2023-02-09T01:09:57.394Z,66.33
2023-02-09T01:12:28.576Z,64.62
2023-02-09T01:14:59.774Z,62.95
2023-02-09T01:17:31.409Z,63.02
2023-02-09T01:20:03.058Z,61.23
2023-02-09T01:22:33.868Z,63.75
2023-02-09T01:25:04.992Z,60.70
2023-02-09T01:27:36.713Z,61.90
2023-02-09T01:30:08.796Z,63.10
2023-02-09T01:32:50.532Z,55.60
2023-02-09T01:35:21.355Z,55.90
2023-02-09T01:38:00.562Z,54.55
2023-02-09T01:40:32.055Z,59.18
2023-02-09T01:43:05.301Z,51.42
2023-02-09T01:45:49.422Z,51.60
2023-02-09T01:48:22.573Z,52.80
2023-02-09T01:50:56.124Z,44.85
2023-02-09T01:53:28.524Z,49.00
2023-02-09T01:56:03.273Z,43.60
2023-02-09T01:58:35.220Z,50.98
2023-02-09T02:01:13.530Z,126.72
2023-02-09T02:03:45.264Z,54.20
2023-02-09T02:06:18.988Z,42.75
2023-02-09T02:09:01.884Z,35.03
2023-02-09T02:11:34.458Z,38.38
2023-02-09T02:14:05.789Z,39.27
2023-02-09T02:16:55.242Z,33.98
2023-02-09T02:19:40.515Z,32.88
2023-02-09T02:22:29.584Z,34.67
2023-02-09T02:25:09.701Z,31.93
2023-02-09T02:27:59.628Z,43.33
2023-02-09T02:30:39.019Z,35.85
2023-02-09T02:33:47.729Z,32.98
2023-02-09T02:36:21.091Z,37.10
2023-02-09T02:39:14.265Z,32.58
2023-02-09T02:42:08.269Z,37.78
2023-02-09T02:44:41.811Z,42.40
2023-02-09T02:47:15.996Z,30.65
2023-02-09T02:49:54.960Z,28.87
2023-02-09T02:52:26.170Z,35.23
2023-02-09T02:55:05.336Z,28.92
2023-02-09T02:57:38.473Z,27.25
2023-02-09T03:00:14.890Z,28.85
2023-02-09T03:02:54.653Z,25.40
2023-02-09T03:05:28.291Z,23.80
2023-02-09T03:07:59.044Z,23.80
2023-02-09T03:10:38.866Z,24.27
2023-02-09T03:13:21.131Z,67.80
2023-02-09T03:16:23.565Z,34.00
2023-02-09T03:19:12.532Z,35.88
2023-02-09T03:21:46.435Z,36.42
2023-02-09T03:24:36.461Z,32.73
2023-02-09T03:27:18.835Z,34.23
2023-02-09T03:29:52.805Z,47.80
2023-02-09T03:32:25.309Z,26.77
2023-02-09T03:34:57.812Z,28.75
2023-02-09T03:37:29.122Z,30.37
2023-02-09T03:40:00.361Z,32.73
2023-02-09T03:42:31.745Z,26.05
2023-02-09T03:45:02.773Z,27.65
2023-02-09T03:47:33.497Z,31.62
2023-02-09T03:50:04.900Z,29.60
2023-02-09T03:52:36.363Z,27.93
2023-02-09T03:55:08.840Z,26.87
2023-02-09T03:57:41.479Z,25.88
2023-02-09T04:00:14.061Z,26.60
2023-02-09T04:02:45.677Z,25.08
2023-02-09T04:05:36.804Z,73.40
2023-02-09T04:08:08.201Z,23.67
2023-02-09T04:10:39.647Z,22.80
2023-02-09T04:13:10.535Z,37.30
2023-02-09T04:15:41.915Z,29.02
2023-02-09T04:18:12.875Z,42.25
2023-02-09T04:20:44.817Z,22.15
2023-02-09T04:23:16.486Z,54.75
2023-02-09T04:25:47.217Z,34.58
2023-02-09T04:28:17.993Z,23.85
2023-02-09T04:30:49.979Z,46.53
2023-02-09T04:33:20.664Z,24.45
2023-02-09T04:35:51.327Z,34.10
2023-02-09T04:38:25.512Z,25.17
2023-02-09T04:40:59.486Z,35.50
2023-02-09T04:43:37.178Z,27.50
2023-02-09T04:46:08.819Z,25.85
2023-02-09T04:48:41.521Z,29.87
2023-02-09T04:51:13.599Z,25.85
2023-02-09T04:53:44.344Z,29.48
2023-02-09T04:56:19.168Z,28.67
2023-02-09T04:59:07.785Z,27.17
2023-02-09T05:01:39.339Z,28.10
2023-02-09T05:04:10.564Z,28.77
2023-02-09T05:06:41.923Z,31.02
2023-02-09T05:09:13.600Z,25.77
2023-02-09T05:11:44.290Z,24.60
2023-02-09T05:14:21.502Z,21.90
2023-02-09T05:16:52.230Z,23.22
2023-02-09T05:19:23.949Z,26.97
2023-02-09T05:21:55.301Z,23.20
2023-02-09T05:24:26.155Z,23.45
2023-02-09T05:26:57.215Z,20.82
2023-02-09T05:29:28.700Z,23.18
2023-02-09T05:32:00.532Z,24.85
2023-02-09T05:34:32.136Z,22.58
2023-02-09T05:37:07.066Z,20.32
2023-02-09T05:39:39.064Z,22.52
2023-02-09T05:42:18.671Z,21.93
2023-02-09T05:44:55.861Z,24.55
2023-02-09T05:47:27.631Z,22.27
2023-02-09T05:49:59.029Z,22.32
2023-02-09T05:52:30.728Z,25.15
2023-02-09T05:55:02.260Z,24.40
2023-02-09T05:57:33.794Z,24.47
2023-02-09T06:00:05.900Z,24.23
2023-02-09T06:02:37.662Z,23.22
2023-02-09T06:05:09.492Z,25.48
2023-02-09T06:07:41.151Z,27.45
2023-02-09T06:10:12.395Z,24.25
2023-02-09T06:12:43.242Z,23.52
2023-02-09T06:15:14.624Z,24.85
2023-02-09T06:17:45.612Z,27.30
2023-02-09T06:20:16.314Z,38.85
2023-02-09T06:22:47.713Z,24.98
2023-02-09T06:25:19.237Z,38.95
2023-02-09T06:27:50.990Z,27.50
2023-02-09T06:30:22.429Z,28.12
2023-02-09T06:32:53.113Z,25.70
2023-02-09T06:35:23.853Z,22.70
2023-02-09T06:37:56.175Z,25.12
2023-02-09T06:40:27.509Z,45.08
2023-02-09T06:42:58.555Z,30.82
2023-02-09T06:45:29.445Z,32.05
2023-02-09T06:48:00.779Z,27.10
2023-02-09T06:50:31.879Z,24.18
2023-02-09T06:53:06.755Z,30.72
2023-02-09T06:55:39.294Z,29.82
2023-02-09T07:01:02.013Z,25.23
2023-02-09T07:03:35.958Z,24.77
2023-02-09T07:06:12.120Z,24.43
2023-02-09T07:08:49.752Z,26.23
2023-02-09T07:11:21.533Z,22.37
2023-02-09T07:13:52.210Z,28.50
2023-02-09T07:16:23.213Z,22.58
2023-02-09T07:18:53.976Z,23.83
2023-02-09T07:21:25.599Z,24.07
2023-02-09T07:23:57.654Z,28.32
2023-02-09T07:26:29.818Z,22.85
2023-02-09T07:29:00.970Z,23.25
2023-02-09T07:31:34.514Z,23.62
2023-02-09T07:34:05.594Z,22.50
2023-02-09T07:36:36.489Z,23.45
2023-02-09T07:39:08.932Z,23.52
2023-02-09T07:41:40.064Z,23.40
2023-02-09T07:44:11.890Z,23.80
2023-02-09T07:46:42.890Z,27.17
2023-02-09T07:49:16.472Z,23.45
2023-02-09T07:51:47.317Z,21.95
2023-02-09T07:54:18.423Z,22.80
2023-02-09T07:56:49.145Z,22.80
2023-02-09T07:59:20.082Z,22.05
2023-02-09T08:01:50.907Z,22.58
2023-02-09T08:04:31.507Z,23.27
2023-02-09T08:07:03.587Z,24.23
2023-02-09T08:09:41.008Z,22.40
2023-02-09T08:12:10.703Z,25.12
2023-02-09T08:14:48.891Z,26.57
2023-02-09T08:17:25.102Z,22.65
2023-02-09T08:19:58.685Z,23.73
2023-02-09T08:22:32.461Z,20.60
2023-02-09T08:25:05.787Z,24.25
2023-02-09T08:27:47.435Z,22.10
2023-02-09T08:30:20.755Z,27.85
2023-02-09T08:32:51.515Z,26.97
2023-02-09T08:35:24.952Z,27.50
2023-02-09T08:37:57.451Z,21.12
2023-02-09T08:40:28.959Z,27.90
2023-02-09T08:43:00.148Z,22.55
2023-02-09T08:45:31.501Z,24.55
2023-02-09T08:48:02.597Z,23.47
2023-02-09T08:50:35.372Z,22.62
2023-02-09T08:53:07.780Z,23.92
2023-02-09T08:55:40.353Z,19.95
2023-02-09T08:58:11.044Z,24.82
2023-02-09T09:00:44.747Z,22.60
2023-02-09T09:03:15.691Z,20.72
2023-02-09T09:05:48.035Z,24.87
2023-02-09T09:08:21.148Z,20.35
2023-02-09T09:10:55.166Z,19.92
2023-02-09T09:13:26.562Z,19.85
2023-02-09T09:15:58.025Z,22.55
2023-02-09T09:18:29.448Z,22.80
2023-02-09T09:21:02.821Z,20.15
2023-02-09T09:23:33.557Z,21.15
2023-02-09T09:26:07.632Z,19.98
2023-02-09T09:28:44.294Z,20.72
2023-02-09T09:31:16.940Z,27.07
2023-02-09T09:39:31.714Z,29.32
2023-02-09T09:42:03.571Z,22.13
2023-02-09T09:44:42.561Z,20.17
2023-02-09T09:47:22.319Z,23.67
2023-02-09T09:49:53.113Z,22.05
2023-02-09T09:52:26.585Z,21.82
2023-02-09T09:54:58.004Z,23.05
2023-02-09T09:57:34.069Z,18.98
2023-02-09T10:00:07.051Z,21.77
2023-02-09T10:02:40.641Z,22.67
2023-02-09T10:05:25.756Z,26.42
2023-02-09T10:08:09.351Z,24.23
2023-02-09T10:10:49.635Z,23.00
2023-02-09T10:13:31.916Z,21.37
2023-02-09T10:16:03.409Z,26.23
2023-02-09T10:18:36.692Z,20.62
2023-02-09T10:21:12.980Z,24.00
2023-02-09T10:26:23.168Z,23.87
2023-02-09T10:29:02.869Z,22.30
2023-02-09T10:31:36.320Z,24.63
2023-02-09T10:34:12.708Z,23.05
2023-02-09T10:36:51.711Z,29.27
2023-02-09T10:39:36.697Z,20.88
2023-02-09T10:42:28.630Z,21.20
2023-02-09T10:45:01.586Z,30.82
2023-02-09T10:47:33.688Z,24.10
2023-02-09T10:50:19.191Z,26.35
2023-02-09T10:53:16.719Z,25.72
2023-02-09T10:55:48.534Z,23.38
2023-02-09T10:58:33.938Z,24.80
2023-02-09T11:01:09.725Z,28.43
2023-02-09T11:03:42.277Z,25.62
2023-02-09T11:06:22.705Z,25.30
2023-02-09T11:08:55.952Z,27.82
2023-02-09T11:11:35.046Z,32.03
2023-02-09T11:14:06.329Z,25.17
2023-02-09T11:16:58.002Z,22.75
2023-02-09T11:19:57.170Z,22.15
2023-02-09T11:22:39.616Z,28.55
2023-02-09T11:25:34.643Z,24.52
2023-02-09T11:28:13.244Z,30.12
2023-02-09T11:31:02.057Z,24.43
2023-02-09T11:33:56.844Z,26.12
2023-02-09T11:36:32.979Z,27.15
2023-02-09T11:39:17.873Z,24.43
2023-02-09T11:42:09.002Z,29.90
2023-02-09T11:45:09.271Z,26.05
2023-02-09T11:47:51.256Z,25.35
2023-02-09T11:50:30.222Z,25.95
2023-02-09T11:53:03.397Z,29.27
2023-02-09T11:55:51.394Z,29.20
2023-02-09T11:58:27.178Z,30.30
2023-02-09T12:01:15.565Z,28.38
2023-02-09T12:03:44.748Z,28.85
2023-02-09T12:06:20.233Z,35.45
2023-02-09T12:08:59.605Z,31.35
2023-02-09T12:11:46.585Z,35.23
2023-02-09T12:14:32.276Z,32.63
2023-02-09T12:17:11.222Z,33.48
2023-02-09T12:19:45.515Z,34.38
2023-02-09T12:22:38.886Z,34.55
2023-02-09T12:25:17.691Z,31.25
2023-02-09T12:30:53.194Z,32.73
2023-02-09T12:33:30.058Z,34.45
2023-02-09T12:36:12.152Z,34.70
2023-02-09T12:39:04.682Z,36.88
2023-02-09T12:41:41.272Z,37.23
2023-02-09T12:44:21.051Z,32.58
2023-02-09T12:46:55.846Z,34.48
2023-02-09T12:49:34.939Z,35.52
2023-02-09T12:52:10.094Z,36.38
2023-02-09T12:54:46.408Z,34.20
2023-02-09T12:57:23.477Z,30.02
2023-02-09T12:59:57.585Z,30.85
2023-02-09T13:02:51.980Z,32.40
2023-02-09T13:05:40.056Z,30.52
2023-02-09T13:08:19.048Z,31.48
2023-02-09T13:11:00.112Z,28.65
2023-02-09T13:13:51.934Z,27.13
2023-02-09T13:16:28.049Z,31.55
2023-02-09T13:19:04.104Z,30.15
2023-02-09T13:22:01.515Z,30.65
2023-02-09T13:24:52.673Z,29.87
2023-02-09T13:27:26.055Z,31.25
2023-02-09T13:29:59.805Z,30.32
2023-02-09T13:32:39.320Z,37.55
2023-02-09T13:35:19.461Z,29.63
2023-02-09T13:37:58.660Z,30.15
2023-02-09T13:40:34.897Z,31.20
2023-02-09T13:43:08.162Z,31.45
2023-02-09T13:45:40.614Z,29.65
2023-02-09T13:48:16.254Z,32.95
2023-02-09T13:50:52.401Z,29.50
2023-02-09T13:53:27.634Z,28.47
2023-02-09T13:56:02.548Z,43.20
2023-02-09T13:58:37.135Z,37.33
2023-02-09T14:01:16.671Z,32.85
2023-02-09T14:03:58.537Z,30.40
2023-02-09T14:06:39.797Z,34.55
2023-02-09T14:09:15.587Z,30.62
2023-02-09T14:11:48.956Z,34.60
2023-02-09T14:17:40.551Z,35.10
2023-02-09T14:20:29.846Z,33.10
2023-02-09T14:23:03.453Z,35.00
2023-02-09T14:25:36.756Z,32.42
2023-02-09T14:28:07.830Z,37.17
2023-02-09T14:30:40.678Z,38.58
2023-02-09T14:33:24.367Z,39.33
2023-02-09T14:36:00.721Z,43.68
2023-02-09T14:38:43.997Z,38.98
2023-02-09T14:41:35.955Z,45.28
2023-02-09T14:44:11.909Z,45.95
2023-02-09T14:47:00.882Z,39.18
2023-02-09T14:49:32.956Z,37.67
2023-02-09T14:52:09.678Z,40.78
2023-02-09T14:54:52.052Z,42.13
2023-02-09T14:57:24.824Z,40.17
2023-02-09T14:59:55.964Z,39.30
2023-02-09T15:02:33.267Z,42.95
2023-02-09T15:05:10.653Z,41.10
2023-02-09T15:10:19.860Z,40.52
2023-02-09T15:12:51.318Z,40.92
2023-02-09T15:15:23.849Z,39.60
2023-02-09T15:17:58.398Z,36.83
2023-02-09T15:20:30.579Z,39.33
2023-02-09T15:23:01.994Z,40.80
2023-02-09T15:25:38.114Z,35.50
2023-02-09T15:28:11.361Z,36.42
2023-02-09T15:30:44.901Z,40.98
2023-02-09T15:33:15.925Z,33.40
2023-02-09T15:35:46.947Z,32.73
2023-02-09T15:38:19.542Z,34.78
2023-02-09T15:41:09.733Z,38.35
2023-02-09T15:43:58.052Z,37.88
2023-02-09T15:46:46.360Z,33.85
2023-02-09T15:49:19.818Z,38.25
2023-02-09T15:51:50.811Z,34.67
2023-02-09T15:54:24.077Z,32.23
2023-02-09T15:56:56.325Z,31.00
2023-02-09T15:59:28.334Z,37.45
2023-02-09T16:02:00.596Z,37.33
2023-02-09T16:04:33.215Z,38.95
2023-02-09T16:07:04.903Z,37.85
2023-02-09T16:09:36.844Z,42.33
2023-02-09T16:12:10.582Z,37.42
2023-02-09T16:14:41.494Z,41.00
2023-02-09T16:17:12.303Z,36.88
2023-02-09T16:19:43.092Z,36.88
2023-02-09T16:22:16.040Z,38.70
2023-02-09T16:24:52.627Z,36.10
2023-02-09T16:27:29.700Z,39.90
2023-02-09T16:30:01.716Z,36.57
2023-02-09T16:32:32.520Z,42.08
2023-02-09T16:35:15.823Z,35.58
2023-02-09T16:37:35.458Z,40.03
2023-02-09T16:40:08.853Z,37.67
2023-02-09T16:42:39.577Z,37.70
2023-02-09T16:45:12.996Z,40.12
2023-02-09T16:47:47.437Z,48.33
2023-02-09T16:50:37.687Z,44.13
2023-02-09T16:53:19.064Z,43.70
2023-02-09T16:55:57.585Z,42.35
2023-02-09T16:58:27.992Z,46.10
2023-02-09T17:01:02.328Z,44.42
2023-02-09T17:03:39.128Z,44.53
2023-02-09T17:09:05.853Z,40.52
2023-02-09T17:11:39.534Z,40.38
2023-02-09T17:14:12.454Z,40.33
2023-02-09T17:16:46.916Z,41.00
2023-02-09T17:19:20.721Z,39.90
2023-02-09T17:22:00.000Z,42.20
2023-02-09T17:24:30.831Z,39.65
2023-02-09T17:27:01.572Z,41.23
2023-02-09T17:29:33.638Z,40.90
2023-02-09T17:32:08.996Z,37.78
2023-02-09T17:34:54.339Z,39.58
2023-02-09T17:37:32.281Z,44.13
2023-02-09T17:42:59.850Z,41.68
2023-02-09T17:45:34.399Z,39.90
2023-02-09T17:48:05.235Z,38.95
2023-02-09T17:50:47.193Z,39.23
2023-02-09T17:53:33.194Z,36.93
2023-02-09T17:56:11.693Z,37.85
2023-02-09T17:58:43.896Z,43.08
2023-02-09T18:01:26.603Z,42.13
2023-02-09T18:04:14.640Z,42.80
2023-02-09T18:06:45.587Z,53.50
2023-02-09T18:09:17.333Z,42.95
2023-02-09T18:11:57.797Z,46.48
2023-02-09T18:14:29.889Z,42.13
2023-02-09T18:17:03.384Z,44.20
2023-02-09T18:19:34.199Z,44.73
2023-02-09T18:22:06.044Z,41.55
2023-02-09T18:24:37.759Z,42.62
2023-02-09T18:27:09.946Z,41.30
2023-02-09T18:29:40.640Z,45.15
2023-02-09T18:32:14.058Z,42.75
2023-02-09T18:34:44.925Z,41.40
2023-02-09T18:37:19.348Z,44.50
2023-02-09T18:39:49.092Z,44.60
2023-02-09T18:42:19.782Z,44.25
2023-02-09T18:44:50.457Z,40.55
2023-02-09T18:47:21.298Z,40.23
2023-02-09T18:49:51.948Z,41.00
2023-02-09T18:52:24.094Z,43.70
2023-02-09T18:54:58.022Z,41.85
2023-02-09T18:57:28.807Z,42.45
2023-02-09T18:59:59.583Z,43.25
2023-02-09T19:02:30.292Z,44.88
2023-02-09T19:05:02.563Z,52.20
2023-02-09T19:07:34.458Z,44.10
2023-02-09T19:10:06.807Z,46.88
2023-02-09T19:12:38.671Z,47.67
2023-02-09T19:15:10.210Z,49.15
2023-02-09T19:17:42.048Z,47.65
2023-02-09T19:20:24.488Z,46.40
2023-02-09T19:22:56.510Z,46.13
2023-02-09T19:25:29.272Z,50.38
2023-02-09T19:28:00.415Z,51.30
2023-02-09T19:30:31.118Z,49.93
2023-02-09T19:33:03.218Z,57.43
2023-02-09T19:35:33.916Z,56.95
2023-02-09T19:38:06.078Z,50.08
2023-02-09T19:40:41.118Z,50.63
2023-02-09T19:43:15.959Z,54.75
2023-02-09T19:45:46.852Z,51.60
2023-02-09T19:48:17.745Z,55.90
2023-02-09T19:50:49.683Z,57.30
2023-02-09T19:53:20.355Z,55.58
2023-02-09T19:55:52.256Z,56.48
2023-02-09T19:58:23.577Z,55.23
2023-02-09T20:00:57.610Z,53.95
2023-02-09T20:03:29.930Z,52.45
2023-02-09T20:06:00.772Z,53.90
2023-02-09T20:08:31.685Z,49.05
2023-02-09T20:11:02.357Z,47.73
2023-02-09T20:13:33.006Z,50.40
2023-02-09T20:16:05.475Z,52.50
2023-02-09T20:18:36.962Z,49.05
2023-02-09T20:21:12.010Z,51.60
2023-02-09T20:23:43.528Z,49.40
2023-02-09T20:26:17.815Z,45.55
2023-02-09T20:28:50.004Z,55.15
2023-02-09T20:31:25.264Z,45.73
2023-02-09T20:33:56.776Z,46.48
2023-02-09T20:36:27.646Z,49.08
2023-02-09T20:38:58.422Z,44.77
2023-02-09T20:41:29.241Z,44.30
2023-02-09T20:44:18.136Z,45.05
2023-02-09T20:46:58.191Z,44.90
2023-02-09T20:49:32.389Z,45.92
2023-02-09T20:52:03.078Z,43.73
2023-02-09T20:54:33.748Z,48.25
2023-02-09T20:57:04.780Z,52.70
2023-02-09T20:59:35.871Z,49.35
2023-02-09T21:02:06.548Z,46.23
2023-02-09T21:04:37.304Z,46.75
2023-02-09T21:07:07.952Z,51.60
2023-02-09T21:09:39.816Z,52.00
2023-02-09T21:12:10.817Z,52.85
2023-02-09T21:14:42.984Z,53.52
2023-02-09T21:17:13.927Z,50.98
2023-02-09T21:19:44.990Z,57.38
2023-02-09T21:22:17.658Z,55.35
2023-02-09T21:24:48.296Z,54.35
2023-02-09T21:27:19.000Z,53.75
2023-02-09T21:29:49.795Z,55.15
2023-02-09T21:32:20.495Z,53.63
2023-02-09T21:34:51.440Z,52.78
2023-02-09T21:37:23.508Z,53.60
2023-02-09T21:39:54.130Z,64.95
2023-02-09T21:42:31.845Z,66.12
2023-02-09T21:45:02.660Z,58.98
2023-02-09T21:47:35.852Z,64.85
2023-02-09T21:50:08.555Z,59.88
2023-02-09T21:52:39.242Z,58.78
2023-02-09T21:55:10.127Z,58.78
2023-02-09T21:57:41.074Z,64.53
2023-02-09T22:00:13.782Z,64.35
2023-02-09T22:02:44.578Z,64.60
2023-02-09T22:05:15.396Z,59.18
2023-02-09T22:07:47.570Z,57.30
2023-02-09T22:10:20.725Z,61.98
2023-02-09T22:12:51.382Z,56.80
2023-02-09T22:15:22.082Z,59.23
2023-02-09T22:17:53.459Z,54.55
2023-02-09T22:20:24.168Z,52.40
2023-02-09T22:22:54.830Z,57.23
2023-02-09T22:25:25.657Z,54.85
2023-02-09T22:27:56.459Z,61.30
2023-02-09T22:30:27.371Z,54.93
2023-02-09T22:32:58.178Z,51.90
2023-02-09T22:35:28.901Z,54.45
2023-02-09T22:37:59.736Z,54.20
2023-02-09T22:40:30.773Z,55.43
2023-02-09T22:43:02.689Z,57.15
2023-02-09T22:45:33.362Z,59.85
2023-02-09T22:48:04.030Z,55.45
2023-02-09T22:50:34.711Z,56.73
2023-02-09T22:53:05.596Z,55.90
2023-02-09T22:55:37.050Z,57.98
2023-02-09T22:58:07.788Z,56.77
2023-02-09T23:00:38.503Z,53.73
2023-02-09T23:03:09.390Z,58.23
2023-02-09T23:05:40.289Z,59.45
2023-02-09T23:08:11.022Z,61.18
2023-02-09T23:10:41.760Z,58.80
2023-02-09T23:13:12.525Z,71.15
2023-02-09T23:15:43.342Z,57.67
2023-02-09T23:18:14.571Z,59.67
2023-02-09T23:20:46.450Z,63.25
2023-02-09T23:23:17.584Z,65.57
2023-02-09T23:25:48.573Z,60.78
2023-02-09T23:28:19.811Z,63.80
2023-02-09T23:30:50.875Z,62.38
2023-02-09T23:33:21.950Z,63.40
2023-02-09T23:35:52.890Z,70.92
2023-02-09T23:38:23.589Z,68.65
2023-02-09T23:40:54.355Z,62.08
2023-02-09T23:43:25.182Z,66.92
2023-02-09T23:45:55.987Z,64.90
2023-02-09T23:48:26.762Z,91.92
2023-02-09T23:51:04.903Z,67.42
2023-02-09T23:53:36.864Z,66.35
2023-02-09T23:56:08.002Z,59.13
2023-02-09T23:58:41.412Z,68.78
